Time;durP1;ratioP1;P1;durP2;ratioP2;P2;SDS_P1;SDS_P2;PMS_P1;PMS_P2;Temp;Humidity;BMP_temperature;BMP_pressure;BME280_temperature;BME280_humidity;BME280_pressure;Samples;Min_cycle;Max_cycle;Signal;HPM_P1;HPM_P2
2021/09/03 00:00:37;;;;;;;6.78;4.05;;;;;;;;;;5073065;28;20039;-73
2021/09/03 00:03:03;;;;;;;6.93;4.30;;;;;;;;;;5073366;28;20029;-74
2021/09/03 00:05:30;;;;;;;4.40;3.58;;;;;;;;;;5073218;28;20029;-74
2021/09/03 00:07:56;;;;;;;5.25;4.50;;;;;;;;;;5073179;28;20383;-73
2021/09/03 00:10:22;;;;;;;6.60;4.85;;;;;;;;;;5073137;28;20036;-74
2021/09/03 00:12:48;;;;;;;8.07;5.03;;;;;;;;;;5073017;28;20032;-75
2021/09/03 00:15:15;;;;;;;5.30;4.43;;;;;;;;;;5073257;28;20033;-75
2021/09/03 00:17:42;;;;;;;4.93;4.43;;;;;;;;;;5073058;28;20475;-75
2021/09/03 00:20:09;;;;;;;6.15;5.28;;;;;;;;;;5072894;28;20051;-75
2021/09/03 00:22:35;;;;;;;5.57;4.45;;;;;;;;;;5072845;28;20021;-75
2021/09/03 00:25:01;;;;;;;11.10;8.90;;;;;;;;;;5073162;28;20523;-74
2021/09/03 00:27:28;;;;;;;7.28;5.40;;;;;;;;;;5072930;28;20031;-75
2021/09/03 00:29:54;;;;;;;5.78;4.53;;;;;;;;;;5073111;28;20054;-75
2021/09/03 00:32:20;;;;;;;5.80;4.18;;;;;;;;;;5072911;28;20032;-74
2021/09/03 00:34:46;;;;;;;6.28;4.85;;;;;;;;;;5072985;28;20371;-75
2021/09/03 00:37:12;;;;;;;5.97;4.45;;;;;;;;;;5072802;28;20529;-74
2021/09/03 00:39:38;;;;;;;6.75;5.00;;;;;;;;;;5072381;28;20059;-75
2021/09/03 00:42:11;;;;;;;7.05;4.90;;;;;;;;;;5074002;28;20029;-75
2021/09/03 00:44:38;;;;;;;5.07;4.55;;;;;;;;;;5076450;28;20067;-74
2021/09/03 00:47:04;;;;;;;5.65;4.70;;;;;;;;;;5076714;28;20032;-75
2021/09/03 00:49:31;;;;;;;6.65;4.63;;;;;;;;;;5076276;28;20091;-75
2021/09/03 00:51:58;;;;;;;6.45;4.78;;;;;;;;;;5076352;28;20036;-75
2021/09/03 00:54:24;;;;;;;6.35;4.85;;;;;;;;;;5076260;28;20055;-74
2021/09/03 00:56:50;;;;;;;6.03;4.53;;;;;;;;;;5076201;28;20173;-74
2021/09/03 00:59:16;;;;;;;5.38;4.70;;;;;;;;;;5076244;28;20037;-75
2021/09/03 01:01:42;;;;;;;6.53;4.65;;;;;;;;;;5075070;28;20379;-75
2021/09/03 01:04:08;;;;;;;6.18;4.55;;;;;;;;;;5076304;28;20028;-74
2021/09/03 01:06:34;;;;;;;6.25;4.78;;;;;;;;;;5076051;28;20025;-74
2021/09/03 01:09:00;;;;;;;5.65;4.30;;;;;;;;;;5076052;28;20091;-75
2021/09/03 01:11:27;;;;;;;5.47;4.55;;;;;;;;;;5074548;28;20395;-75
2021/09/03 01:13:53;;;;;;;5.50;4.78;;;;;;;;;;5075965;28;20032;-75
2021/09/03 01:16:19;;;;;;;6.20;4.40;;;;;;;;;;5075864;28;20096;-74
2021/09/03 01:18:45;;;;;;;6.35;4.43;;;;;;;;;;5075903;28;20047;-74
2021/09/03 01:21:12;;;;;;;7.03;4.65;;;;;;;;;;5075856;28;20501;-74
2021/09/03 01:23:38;;;;;;;5.60;4.70;;;;;;;;;;5075758;28;20032;-74
2021/09/03 01:26:05;;;;;;;6.60;4.68;;;;;;;;;;5075757;28;20028;-75
2021/09/03 01:28:31;;;;;;;5.40;4.90;;;;;;;;;;5075657;28;20419;-74
2021/09/03 01:30:57;;;;;;;6.93;4.35;;;;;;;;;;5075567;28;20024;-74
2021/09/03 01:33:23;;;;;;;7.10;4.78;;;;;;;;;;5075552;28;20052;-75
2021/09/03 01:35:49;;;;;;;6.72;4.80;;;;;;;;;;5075661;28;20036;-75
2021/09/03 01:38:16;;;;;;;5.15;4.60;;;;;;;;;;5075312;28;20154;-74
2021/09/03 01:40:42;;;;;;;5.50;4.55;;;;;;;;;;5075702;28;20039;-74
2021/09/03 01:43:08;;;;;;;6.53;4.85;;;;;;;;;;5075387;28;20535;-73
2021/09/03 01:45:34;;;;;;;6.15;4.72;;;;;;;;;;5075422;28;20028;-73
2021/09/03 01:48:00;;;;;;;6.97;4.75;;;;;;;;;;5075397;28;20028;-74
2021/09/03 01:50:26;;;;;;;5.97;4.78;;;;;;;;;;5075174;28;20034;-73
2021/09/03 01:52:53;;;;;;;6.93;4.90;;;;;;;;;;5073698;28;20025;-74
2021/09/03 01:55:19;;;;;;;6.63;4.57;;;;;;;;;;5075174;28;20421;-74
2021/09/03 01:57:45;;;;;;;5.60;4.45;;;;;;;;;;5074150;28;20062;-75
2021/09/03 02:00:11;;;;;;;6.22;5.43;;;;;;;;;;5075131;28;20032;-74
2021/09/03 02:02:38;;;;;;;6.70;5.80;;;;;;;;;;5075092;28;20100;-74
2021/09/03 02:05:05;;;;;;;6.05;5.45;;;;;;;;;;5074979;28;20379;-75
2021/09/03 02:07:31;;;;;;;5.65;4.78;;;;;;;;;;5075189;28;20067;-74
2021/09/03 02:09:57;;;;;;;5.82;4.65;;;;;;;;;;5074964;28;20067;-74
2021/09/03 02:12:23;;;;;;;5.93;5.15;;;;;;;;;;5074170;28;20371;-74
2021/09/03 02:14:49;;;;;;;6.10;5.05;;;;;;;;;;5074866;28;20028;-73
2021/09/03 02:17:15;;;;;;;5.90;5.15;;;;;;;;;;5074675;28;20104;-73
2021/09/03 02:19:41;;;;;;;5.55;4.80;;;;;;;;;;5074717;28;20041;-75
2021/09/03 02:22:08;;;;;;;5.97;4.63;;;;;;;;;;5074838;28;20024;-73
2021/09/03 02:24:34;;;;;;;6.10;5.22;;;;;;;;;;5074596;28;20031;-74
2021/09/03 02:27:00;;;;;;;6.43;4.47;;;;;;;;;;5074560;28;20387;-74
2021/09/03 02:29:26;;;;;;;5.90;4.60;;;;;;;;;;5074518;28;20471;-74
2021/09/03 02:31:54;;;;;;;6.63;5.10;;;;;;;;;;5074403;28;20032;-74
2021/09/03 02:34:20;;;;;;;6.82;5.13;;;;;;;;;;5074355;28;20025;-75
2021/09/03 02:36:46;;;;;;;5.45;4.75;;;;;;;;;;5074137;28;20111;-74
2021/09/03 02:39:12;;;;;;;5.95;5.35;;;;;;;;;;5073964;28;20036;-74
2021/09/03 02:41:38;;;;;;;9.10;5.68;;;;;;;;;;5074388;28;20448;-74
2021/09/03 02:44:05;;;;;;;4.97;4.53;;;;;;;;;;5074085;28;20027;-74
2021/09/03 02:46:31;;;;;;;6.70;5.28;;;;;;;;;;5073966;28;20115;-75
2021/09/03 02:48:57;;;;;;;7.53;5.25;;;;;;;;;;5074063;28;20530;-74
2021/09/03 02:51:23;;;;;;;6.32;4.85;;;;;;;;;;5074047;28;20476;-75
2021/09/03 02:53:49;;;;;;;6.30;5.15;;;;;;;;;;5073952;28;20025;-75
2021/09/03 02:56:15;;;;;;;5.55;4.50;;;;;;;;;;5073965;28;20483;-74
2021/09/03 02:58:41;;;;;;;7.45;5.40;;;;;;;;;;5073862;28;20024;-75
2021/09/03 03:01:08;;;;;;;7.50;5.88;;;;;;;;;;5073871;28;20044;-74
2021/09/03 03:03:34;;;;;;;5.72;4.65;;;;;;;;;;5074108;28;20025;-73
2021/09/03 03:06:00;;;;;;;6.47;5.10;;;;;;;;;;5073466;28;20131;-75
2021/09/03 03:08:26;;;;;;;5.55;4.35;;;;;;;;;;5073816;28;20099;-74
2021/09/03 03:10:52;;;;;;;6.95;5.38;;;;;;;;;;5073846;28;20052;-74
2021/09/03 03:13:26;;;;;;;6.40;5.07;;;;;;;;;;5073717;28;20078;-75
2021/09/03 03:15:53;;;;;;;5.57;5.07;;;;;;;;;;5074018;28;20434;-73
2021/09/03 03:18:19;;;;;;;5.80;4.88;;;;;;;;;;5073608;28;20024;-74
2021/09/03 03:20:46;;;;;;;6.13;5.00;;;;;;;;;;5073499;28;20042;-74
2021/09/03 03:23:12;;;;;;;5.35;4.85;;;;;;;;;;5073637;28;20029;-74
2021/09/03 03:25:39;;;;;;;7.03;4.88;;;;;;;;;;5073520;28;20052;-74
2021/09/03 03:28:05;;;;;;;6.25;5.00;;;;;;;;;;5073527;28;20074;-75
2021/09/03 03:30:31;;;;;;;6.75;4.75;;;;;;;;;;5073496;28;20024;-74
2021/09/03 03:32:57;;;;;;;5.65;5.07;;;;;;;;;;5073378;28;20029;-75
2021/09/03 03:35:24;;;;;;;6.32;4.72;;;;;;;;;;5073480;28;20507;-74
2021/09/03 03:37:50;;;;;;;9.13;5.72;;;;;;;;;;5073170;28;20020;-74
2021/09/03 03:40:17;;;;;;;6.47;5.22;;;;;;;;;;5073315;28;20041;-74
2021/09/03 03:42:44;;;;;;;7.60;4.60;;;;;;;;;;5073257;28;20031;-75
2021/09/03 03:45:10;;;;;;;6.32;4.80;;;;;;;;;;5073387;28;20025;-74
2021/09/03 03:47:37;;;;;;;5.97;5.10;;;;;;;;;;5073297;28;20394;-74
2021/09/03 03:50:04;;;;;;;6.60;5.00;;;;;;;;;;5073641;28;20052;-75
2021/09/03 03:52:30;;;;;;;6.88;5.00;;;;;;;;;;5073301;28;20024;-75
2021/09/03 03:54:56;;;;;;;7.40;6.03;;;;;;;;;;5073302;28;20063;-74
2021/09/03 03:57:22;;;;;;;6.97;5.30;;;;;;;;;;5073195;28;20028;-74
2021/09/03 03:59:48;;;;;;;7.03;5.78;;;;;;;;;;5073393;28;20043;-75
2021/09/03 04:02:14;;;;;;;7.43;5.90;;;;;;;;;;5073340;28;20031;-75
2021/09/03 04:04:40;;;;;;;10.27;6.03;;;;;;;;;;5073218;28;20430;-75
2021/09/03 04:07:06;;;;;;;8.63;6.32;;;;;;;;;;5073125;28;20021;-75
2021/09/03 04:09:33;;;;;;;7.40;5.68;;;;;;;;;;5073097;28;20048;-74
2021/09/03 04:11:59;;;;;;;7.72;5.40;;;;;;;;;;5073083;28;20028;-75
2021/09/03 04:14:25;;;;;;;11.13;9.00;;;;;;;;;;5073286;28;20024;-74
2021/09/03 04:16:51;;;;;;;13.77;10.23;;;;;;;;;;5075443;28;20060;-75
2021/09/03 04:19:17;;;;;;;13.35;9.65;;;;;;;;;;5076914;28;20077;-75
2021/09/03 04:21:43;;;;;;;8.77;5.55;;;;;;;;;;5077204;28;20046;-74
2021/09/03 04:24:09;;;;;;;7.40;5.60;;;;;;;;;;5076918;28;20025;-75
2021/09/03 04:26:36;;;;;;;22.00;14.95;;;;;;;;;;5076979;28;20199;-75
2021/09/03 04:29:02;;;;;;;7.72;5.93;;;;;;;;;;5076862;28;20075;-74
2021/09/03 04:31:28;;;;;;;7.25;5.25;;;;;;;;;;5077304;28;20027;-75
2021/09/03 04:33:55;;;;;;;7.30;5.10;;;;;;;;;;5076749;28;20051;-76
2021/09/03 04:36:21;;;;;;;23.58;16.08;;;;;;;;;;5076761;28;20489;-76
2021/09/03 04:38:47;;;;;;;7.00;5.97;;;;;;;;;;5076319;28;20056;-75
2021/09/03 04:41:13;;;;;;;8.38;5.63;;;;;;;;;;5076245;28;20042;-75
2021/09/03 04:43:39;;;;;;;6.10;5.50;;;;;;;;;;5077002;28;20095;-76
2021/09/03 04:46:05;;;;;;;6.50;5.35;;;;;;;;;;5076597;28;20032;-76
2021/09/03 04:48:31;;;;;;;15.23;11.57;;;;;;;;;;5076311;28;20074;-77
2021/09/03 04:50:57;;;;;;;7.63;6.15;;;;;;;;;;5076403;28;20024;-75
2021/09/03 04:53:23;;;;;;;11.73;8.70;;;;;;;;;;5076274;28;20478;-77
2021/09/03 04:55:49;;;;;;;7.32;5.18;;;;;;;;;;5076266;28;20078;-76
2021/09/03 04:58:15;;;;;;;6.20;5.40;;;;;;;;;;5076193;28;20380;-76
2021/09/03 05:00:42;;;;;;;6.25;5.65;;;;;;;;;;5076088;28;20502;-76
2021/09/03 05:03:08;;;;;;;6.97;5.22;;;;;;;;;;5074817;28;20029;-76
2021/09/03 05:05:34;;;;;;;7.47;6.00;;;;;;;;;;5076231;28;20039;-75
2021/09/03 05:08:00;;;;;;;7.22;5.30;;;;;;;;;;5075971;28;20040;-75
2021/09/03 05:10:26;;;;;;;7.38;6.00;;;;;;;;;;5076094;28;20082;-77
2021/09/03 05:12:52;;;;;;;5.80;4.70;;;;;;;;;;5075972;28;20029;-76
2021/09/03 05:15:19;;;;;;;9.05;5.43;;;;;;;;;;5075879;28;20036;-76
2021/09/03 05:17:50;;;;;;;5.72;5.00;;;;;;;;;;5075929;28;20049;-78
2021/09/03 05:20:16;;;;;;;8.75;5.20;;;;;;;;;;5075384;28;20043;-76
2021/09/03 05:22:42;;;;;;;5.72;4.15;;;;;;;;;;5075498;28;20028;-78
2021/09/03 05:25:09;;;;;;;6.50;5.40;;;;;;;;;;5074892;28;20479;-78
2021/09/03 05:27:36;;;;;;;7.22;5.05;;;;;;;;;;5072175;28;20028;-77
2021/09/03 05:30:02;;;;;;;6.10;5.00;;;;;;;;;;5093252;28;20031;-77
2021/09/03 05:32:28;;;;;;;6.25;4.75;;;;;;;;;;5094523;28;20490;-78
2021/09/03 05:34:54;;;;;;;6.25;4.68;;;;;;;;;;5093223;28;20475;-68
2021/09/03 05:37:20;;;;;;;9.18;4.95;;;;;;;;;;5090847;28;20028;-77
2021/09/03 05:39:46;;;;;;;5.05;4.35;;;;;;;;;;5078746;28;20044;-77
2021/09/03 05:42:14;;;;;;;8.73;5.45;;;;;;;;;;5074166;28;20033;-77
2021/09/03 05:44:40;;;;;;;6.97;5.00;;;;;;;;;;5074437;28;20028;-78
2021/09/03 05:47:06;;;;;;;6.10;5.13;;;;;;;;;;5088426;28;20470;-77
2021/09/03 05:49:32;;;;;;;6.20;5.13;;;;;;;;;;5093080;28;20512;-75
2021/09/03 05:51:58;;;;;;;5.30;4.40;;;;;;;;;;5093959;28;20094;-77
2021/09/03 05:54:25;;;;;;;9.00;5.45;;;;;;;;;;5094607;28;20032;-76
2021/09/03 05:56:51;;;;;;;6.72;4.40;;;;;;;;;;5093449;28;20054;-76
2021/09/03 05:59:17;;;;;;;6.28;5.65;;;;;;;;;;5090438;28;20062;-76
2021/09/03 06:01:43;;;;;;;9.98;8.27;;;;;;;;;;5093489;28;20428;-76
2021/09/03 06:04:09;;;;;;;5.90;5.00;;;;;;;;;;5092819;28;20028;-78
2021/09/03 06:06:35;;;;;;;6.55;4.65;;;;;;;;;;5093376;28;20032;-77
2021/09/03 06:09:01;;;;;;;5.95;4.60;;;;;;;;;;5091999;28;20327;-81
2021/09/03 06:11:28;;;;;;;5.30;4.43;;;;;;;;;;5093090;28;20024;-78
2021/09/03 06:13:54;;;;;;;5.35;4.57;;;;;;;;;;5093206;28;20475;-78
2021/09/03 06:16:20;;;;;;;10.82;7.00;;;;;;;;;;5093434;28;20028;-77
2021/09/03 06:18:47;;;;;;;6.47;5.63;;;;;;;;;;5093348;28;20370;-77
2021/09/03 06:21:13;;;;;;;18.52;5.93;;;;;;;;;;5092758;28;20479;-78
2021/09/03 06:23:39;;;;;;;9.35;5.68;;;;;;;;;;5092710;28;20024;-76
2021/09/03 06:26:05;;;;;;;4.90;4.40;;;;;;;;;;5084152;28;20395;-77
2021/09/03 06:28:31;;;;;;;6.22;4.22;;;;;;;;;;5074710;28;20021;-76
2021/09/03 06:30:57;;;;;;;5.57;4.55;;;;;;;;;;5082885;28;20514;-76
2021/09/03 06:33:24;;;;;;;6.05;4.05;;;;;;;;;;5092782;28;20024;-77
2021/09/03 06:35:50;;;;;;;6.68;4.90;;;;;;;;;;5092654;28;20082;-78
2021/09/03 06:38:16;;;;;;;7.65;5.00;;;;;;;;;;5092172;28;20779;-76
2021/09/03 06:40:42;;;;;;;4.95;4.47;;;;;;;;;;5091721;28;20119;-77
2021/09/03 06:43:08;;;;;;;6.82;4.10;;;;;;;;;;5092444;28;20106;-75
2021/09/03 06:45:34;;;;;;;8.23;4.85;;;;;;;;;;5092775;28;20063;-78
2021/09/03 06:48:00;;;;;;;5.05;4.30;;;;;;;;;;5092389;28;20107;-77
2021/09/03 06:50:26;;;;;;;5.70;3.92;;;;;;;;;;5092637;28;20047;-75
2021/09/03 06:52:53;;;;;;;23.02;6.25;;;;;;;;;;5092383;28;20032;-78
2021/09/03 06:55:19;;;;;;;5.85;5.05;;;;;;;;;;5092288;28;20024;-78
2021/09/03 06:57:45;;;;;;;5.65;3.95;;;;;;;;;;5092309;28;20487;-77
2021/09/03 07:00:11;;;;;;;5.68;4.38;;;;;;;;;;5091947;28;20034;-77
2021/09/03 07:02:40;;;;;;;6.82;4.95;;;;;;;;;;5092691;28;20063;-78
2021/09/03 07:05:07;;;;;;;6.18;4.13;;;;;;;;;;5092036;28;20024;-78
2021/09/03 07:07:33;;;;;;;6.50;4.38;;;;;;;;;;5092216;28;20024;-76
2021/09/03 07:09:59;;;;;;;5.20;3.90;;;;;;;;;;5092158;28;20054;-77
2021/09/03 07:12:25;;;;;;;5.57;4.15;;;;;;;;;;5092167;28;20027;-80
2021/09/03 07:14:51;;;;;;;5.10;3.55;;;;;;;;;;5092244;28;20024;-79
2021/09/03 07:17:18;;;;;;;11.70;9.13;;;;;;;;;;5091949;28;20153;-75
2021/09/03 07:19:44;;;;;;;7.22;3.42;;;;;;;;;;5092513;28;20040;-79
2021/09/03 07:22:10;;;;;;;14.00;6.15;;;;;;;;;;5091946;28;20027;-78
2021/09/03 07:24:36;;;;;;;6.63;4.05;;;;;;;;;;5092112;28;20020;-77
2021/09/03 07:27:03;;;;;;;4.63;4.00;;;;;;;;;;5091874;28;20201;-77
2021/09/03 07:29:29;;;;;;;5.00;4.10;;;;;;;;;;5091353;28;20118;-78
2021/09/03 07:31:56;;;;;;;6.78;3.72;;;;;;;;;;5092043;28;20081;-77
2021/09/03 07:34:22;;;;;;;6.38;3.70;;;;;;;;;;5091802;28;20073;-75
2021/09/03 07:36:48;;;;;;;10.43;3.72;;;;;;;;;;5092153;28;20040;-76
2021/09/03 07:39:18;;;;;;;3.88;3.45;;;;;;;;;;5091553;28;20048;-75
2021/09/03 07:41:45;;;;;;;5.13;3.67;;;;;;;;;;5091716;28;20036;-77
2021/09/03 07:44:11;;;;;;;7.10;5.95;;;;;;;;;;5091778;28;20077;-77
2021/09/03 07:46:37;;;;;;;5.75;4.75;;;;;;;;;;5091485;28;20103;-75
2021/09/03 07:49:06;;;;;;;5.10;3.70;;;;;;;;;;5091577;28;20027;-76
2021/09/03 07:51:33;;;;;;;8.40;6.53;;;;;;;;;;5091215;28;20032;-77
2021/09/03 07:53:59;;;;;;;5.35;3.65;;;;;;;;;;5091857;28;20028;-76
2021/09/03 07:56:25;;;;;;;4.70;3.40;;;;;;;;;;5091588;28;20111;-75
2021/09/03 07:58:51;;;;;;;4.93;3.08;;;;;;;;;;5084654;28;20068;-76
2021/09/03 08:01:17;;;;;;;7.13;3.92;;;;;;;;;;5091643;28;20544;-77
2021/09/03 08:03:43;;;;;;;4.40;3.15;;;;;;;;;;5091578;28;20078;-78
2021/09/03 08:06:09;;;;;;;9.40;7.03;;;;;;;;;;5085445;28;20103;-78
2021/09/03 08:08:36;;;;;;;4.85;4.22;;;;;;;;;;5071289;28;20021;-78
2021/09/03 08:11:02;;;;;;;6.47;4.05;;;;;;;;;;5071130;28;20028;-77
2021/09/03 08:13:28;;;;;;;6.75;3.70;;;;;;;;;;5071181;28;20122;-76
2021/09/03 08:15:54;;;;;;;4.50;3.65;;;;;;;;;;5071249;28;20036;-77
2021/09/03 08:18:26;;;;;;;3.95;3.42;;;;;;;;;;5071420;28;20025;-77
2021/09/03 08:20:53;;;;;;;4.35;3.10;;;;;;;;;;5071202;28;20033;-79
2021/09/03 08:23:19;;;;;;;4.63;3.28;;;;;;;;;;5071434;28;20029;-77
2021/09/03 08:25:45;;;;;;;6.28;3.90;;;;;;;;;;5071044;28;20041;-77
2021/09/03 08:28:11;;;;;;;5.35;3.70;;;;;;;;;;5074729;28;20024;-74
2021/09/03 08:30:37;;;;;;;7.10;3.63;;;;;;;;;;5091368;28;20065;-73
2021/09/03 08:33:03;;;;;;;4.35;3.42;;;;;;;;;;5091376;28;20129;-77
2021/09/03 08:35:32;;;;;;;4.18;3.08;;;;;;;;;;5091029;28;20111;-76
2021/09/03 08:37:58;;;;;;;5.97;3.50;;;;;;;;;;5091159;28;20086;-76
2021/09/03 08:40:25;;;;;;;6.00;4.18;;;;;;;;;;5091059;28;20036;-77
2021/09/03 08:42:51;;;;;;;3.55;3.25;;;;;;;;;;5091034;28;20063;-78
2021/09/03 08:45:17;;;;;;;6.30;3.67;;;;;;;;;;5091351;28;20035;-78
2021/09/03 08:47:44;;;;;;;6.85;3.38;;;;;;;;;;5091073;28;20479;-77
2021/09/03 08:50:11;;;;;;;5.22;3.90;;;;;;;;;;5091366;28;20063;-76
2021/09/03 08:52:42;;;;;;;7.80;4.78;;;;;;;;;;5091000;28;20444;-78
2021/09/03 08:55:08;;;;;;;5.38;3.47;;;;;;;;;;5084066;28;20066;-82
2021/09/03 08:57:34;;;;;;;5.13;3.17;;;;;;;;;;5080231;28;20137;-79
2021/09/03 09:00:09;;;;;;;4.70;2.90;;;;;;;;;;5089214;28;20082;-76
2021/09/03 09:02:38;;;;;;;4.32;3.10;;;;;;;;;;5091180;28;20031;-76
2021/09/03 09:05:04;;;;;;;22.17;19.92;;;;;;;;;;5094875;28;20051;-77
2021/09/03 09:07:30;;;;;;;18.40;15.77;;;;;;;;;;5094803;28;20028;-78
2021/09/03 09:10:05;;;;;;;6.32;5.30;;;;;;;;;;5092895;28;20427;-75
2021/09/03 09:12:33;;;;;;;3.72;3.05;;;;;;;;;;5079169;28;20498;-77
2021/09/03 09:15:03;;;;;;;3.60;3.05;;;;;;;;;;5073961;28;20038;-76
2021/09/03 09:17:30;;;;;;;3.83;2.88;;;;;;;;;;5073992;28;20074;-75
2021/09/03 09:19:57;;;;;;;5.32;3.30;;;;;;;;;;5088704;28;20031;-75
2021/09/03 09:22:23;;;;;;;4.07;3.25;;;;;;;;;;5093988;28;20020;-75
2021/09/03 09:24:49;;;;;;;4.13;2.97;;;;;;;;;;5093794;28;20501;-73
2021/09/03 09:27:34;;;;;;;3.90;2.83;;;;;;;;;;5094310;28;20024;-74
2021/09/03 09:30:17;;;;;;;3.60;3.30;;;;;;;;;;5093781;28;20482;-75
2021/09/03 09:32:43;;;;;;;5.20;3.40;;;;;;;;;;5085539;28;20501;-75
2021/09/03 09:35:10;;;;;;;5.13;3.25;;;;;;;;;;5081131;28;20024;-77
2021/09/03 09:37:36;;;;;;;5.25;3.45;;;;;;;;;;5092307;28;20078;-76
2021/09/03 09:40:02;;;;;;;12.05;9.30;;;;;;;;;;5093026;28;20540;-75
2021/09/03 09:42:30;;;;;;;9.63;6.85;;;;;;;;;;5094148;28;20031;-76
2021/09/03 09:45:03;;;;;;;7.40;5.97;;;;;;;;;;5093383;28;20042;-77
2021/09/03 09:47:29;;;;;;;7.67;6.47;;;;;;;;;;5094147;28;20129;-76
2021/09/03 09:49:56;;;;;;;5.30;4.00;;;;;;;;;;5092117;28;20032;-75
2021/09/03 09:52:37;;;;;;;9.50;8.57;;;;;;;;;;5079280;28;20032;-75
2021/09/03 09:55:07;;;;;;;5.15;4.47;;;;;;;;;;5083914;28;20028;-77
2021/09/03 09:57:33;;;;;;;9.13;8.15;;;;;;;;;;5077251;28;20066;-77
2021/09/03 10:00:06;;;;;;;5.82;4.30;;;;;;;;;;5082481;28;20449;-75
2021/09/03 10:02:37;;;;;;;9.05;6.90;;;;;;;;;;5086617;28;20032;-75
2021/09/03 10:05:04;;;;;;;9.55;5.95;;;;;;;;;;5079216;28;20475;-77
2021/09/03 10:07:31;;;;;;;6.35;4.10;;;;;;;;;;5072535;28;20058;-74
2021/09/03 10:09:57;;;;;;;7.13;4.45;;;;;;;;;;5077210;28;20025;-75
2021/09/03 10:12:24;;;;;;;5.93;4.75;;;;;;;;;;5091249;28;20111;-76
2021/09/03 10:14:50;;;;;;;5.38;4.20;;;;;;;;;;5081589;28;20043;-75
2021/09/03 10:17:20;;;;;;;5.88;4.25;;;;;;;;;;5078767;28;20103;-76
2021/09/03 10:19:49;;;;;;;5.78;4.30;;;;;;;;;;5093937;28;20102;-74
2021/09/03 10:22:17;;;;;;;5.82;4.47;;;;;;;;;;5093565;28;20019;-77
2021/09/03 10:24:45;;;;;;;5.32;4.30;;;;;;;;;;5093711;28;20024;-76
2021/09/03 10:27:12;;;;;;;4.75;4.25;;;;;;;;;;5073479;28;20519;-74
2021/09/03 10:29:41;;;;;;;6.60;4.68;;;;;;;;;;5089271;28;20045;-77
2021/09/03 10:32:08;;;;;;;4.97;4.38;;;;;;;;;;5093742;28;20028;-76
2021/09/03 10:34:54;;;;;;;5.97;4.68;;;;;;;;;;5093832;28;20027;-77
2021/09/03 10:37:20;;;;;;;5.88;4.45;;;;;;;;;;5080208;28;20056;-77
2021/09/03 10:39:52;;;;;;;7.15;4.47;;;;;;;;;;5089874;28;20056;-76
2021/09/03 10:42:46;;;;;;;8.85;5.55;;;;;;;;;;5078779;28;20057;-78
2021/09/03 10:48:11;;;;;;;7.88;4.57;;;;;;;;;;5088065;28;20050;-76
2021/09/03 10:50:37;;;;;;;8.73;5.65;;;;;;;;;;5093004;28;20609;-77
2021/09/03 10:53:06;;;;;;;5.90;5.28;;;;;;;;;;5093131;28;20024;-78
2021/09/03 10:55:51;;;;;;;7.05;5.68;;;;;;;;;;5093383;28;20024;-76
2021/09/03 10:58:32;;;;;;;6.47;5.72;;;;;;;;;;5092402;28;20078;-76
2021/09/03 11:01:14;;;;;;;7.78;6.28;;;;;;;;;;5092740;28;20040;-76
2021/09/03 11:03:47;;;;;;;9.30;7.03;;;;;;;;;;5092484;28;20337;-78
2021/09/03 11:06:13;;;;;;;8.88;6.25;;;;;;;;;;5092693;28;20372;-76
2021/09/03 11:08:41;;;;;;;7.65;6.28;;;;;;;;;;5073264;28;20204;-74
2021/09/03 11:11:25;;;;;;;10.25;6.53;;;;;;;;;;5072297;28;20111;-76
2021/09/03 11:13:53;;;;;;;8.60;6.53;;;;;;;;;;5072474;28;20487;-76
2021/09/03 11:16:37;;;;;;;14.88;6.07;;;;;;;;;;5072244;28;20055;-77
2021/09/03 11:19:12;;;;;;;10.07;5.47;;;;;;;;;;5072046;28;20025;-76
2021/09/03 11:21:40;;;;;;;7.85;5.78;;;;;;;;;;5072331;28;20036;-77
2021/09/03 11:24:07;;;;;;;14.05;6.47;;;;;;;;;;5072537;28;20490;-76
2021/09/03 11:26:34;;;;;;;9.27;5.90;;;;;;;;;;5071732;28;20028;-76
2021/09/03 11:29:04;;;;;;;8.15;5.93;;;;;;;;;;5082852;28;20035;-75
2021/09/03 11:31:33;;;;;;;8.23;5.63;;;;;;;;;;5092288;28;20027;-74
2021/09/03 11:34:05;;;;;;;7.75;5.47;;;;;;;;;;5083863;28;20074;-76
2021/09/03 11:36:46;;;;;;;7.00;5.32;;;;;;;;;;5078178;28;20524;-76
2021/09/03 11:39:16;;;;;;;7.80;6.22;;;;;;;;;;5075287;28;20052;-76
2021/09/03 11:41:52;;;;;;;7.13;5.57;;;;;;;;;;5092456;28;20026;-76
2021/09/03 11:44:18;;;;;;;6.80;5.22;;;;;;;;;;5088288;28;20036;-76
2021/09/03 11:46:44;;;;;;;6.07;4.45;;;;;;;;;;5081264;28;20041;-75
2021/09/03 11:49:11;;;;;;;8.10;5.43;;;;;;;;;;5070476;28;20458;-75
2021/09/03 11:51:37;;;;;;;8.75;4.85;;;;;;;;;;5077206;28;20062;-76
2021/09/03 11:54:03;;;;;;;8.70;4.82;;;;;;;;;;5092406;28;20024;-75
2021/09/03 11:56:29;;;;;;;6.57;5.00;;;;;;;;;;5088821;28;20107;-76
2021/09/03 11:58:55;;;;;;;8.05;5.68;;;;;;;;;;5076635;28;20032;-78
2021/09/03 12:01:22;;;;;;;21.13;5.80;;;;;;;;;;5071781;28;20475;-76
2021/09/03 12:03:50;;;;;;;7.32;5.32;;;;;;;;;;5071925;28;20107;-77
2021/09/03 12:06:18;;;;;;;7.47;5.50;;;;;;;;;;5083716;28;20487;-76
2021/09/03 12:08:44;;;;;;;9.00;5.50;;;;;;;;;;5083168;28;20036;-76
2021/09/03 12:11:11;;;;;;;6.30;4.75;;;;;;;;;;5090701;28;20024;-75
2021/09/03 12:13:43;;;;;;;7.07;5.40;;;;;;;;;;5091252;28;20111;-76
2021/09/03 12:16:10;;;;;;;7.07;5.20;;;;;;;;;;5092160;28;20024;-76
2021/09/03 12:18:38;;;;;;;7.50;5.45;;;;;;;;;;5089725;28;20039;-76
2021/09/03 12:21:06;;;;;;;6.10;4.65;;;;;;;;;;5081807;28;20951;-76
2021/09/03 12:23:36;;;;;;;5.75;4.43;;;;;;;;;;5076462;28;20024;-74
2021/09/03 12:26:03;;;;;;;5.95;5.07;;;;;;;;;;5083923;28;20051;-75
2021/09/03 12:28:30;;;;;;;7.93;6.05;;;;;;;;;;5081660;28;20017;-75
2021/09/03 12:30:56;;;;;;;6.90;5.15;;;;;;;;;;5083580;28;20398;-75
2021/09/03 12:33:27;;;;;;;11.73;5.82;;;;;;;;;;5080362;28;20078;-74
2021/09/03 12:35:54;;;;;;;7.72;5.65;;;;;;;;;;5077871;28;20028;-74
2021/09/03 12:38:40;;;;;;;9.45;5.60;;;;;;;;;;5082679;28;20055;-74
2021/09/03 12:41:08;;;;;;;6.95;5.22;;;;;;;;;;5085105;28;20124;-76
2021/09/03 12:43:34;;;;;;;7.43;4.82;;;;;;;;;;5077453;28;20394;-75
2021/09/03 12:46:06;;;;;;;11.57;6.20;;;;;;;;;;5074314;28;20021;-75
2021/09/03 12:48:32;;;;;;;7.85;4.78;;;;;;;;;;5084039;28;20158;-75
2021/09/03 12:50:58;;;;;;;6.93;5.38;;;;;;;;;;5095139;28;20024;-75
2021/09/03 12:53:25;;;;;;;9.32;6.60;;;;;;;;;;5085333;28;20032;-74
2021/09/03 12:55:52;;;;;;;6.43;4.78;;;;;;;;;;5095269;28;20050;-75
2021/09/03 12:58:18;;;;;;;6.82;4.82;;;;;;;;;;5079948;28;20117;-75
2021/09/03 13:00:44;;;;;;;7.93;6.95;;;;;;;;;;5074682;28;20040;-76
2021/09/03 13:03:11;;;;;;;10.00;5.55;;;;;;;;;;5075034;28;20024;-76
2021/09/03 13:05:38;;;;;;;6.40;4.80;;;;;;;;;;5077868;28;20047;-75
2021/09/03 13:08:04;;;;;;;5.80;4.72;;;;;;;;;;5090204;28;20028;-74
2021/09/03 13:10:31;;;;;;;9.20;5.63;;;;;;;;;;5079550;28;20107;-75
2021/09/03 13:12:57;;;;;;;8.82;5.28;;;;;;;;;;5080109;28;20036;-75
2021/09/03 13:15:23;;;;;;;8.25;5.78;;;;;;;;;;5079979;28;20054;-74
2021/09/03 13:17:50;;;;;;;5.97;4.93;;;;;;;;;;5078610;28;20138;-79
2021/09/03 13:20:17;;;;;;;8.05;5.00;;;;;;;;;;5091830;28;20471;-76
2021/09/03 13:22:43;;;;;;;8.07;5.88;;;;;;;;;;5087321;28;20448;-75
2021/09/03 13:25:09;;;;;;;8.95;6.18;;;;;;;;;;5085574;28;20502;-74
2021/09/03 13:27:35;;;;;;;8.48;6.03;;;;;;;;;;5087712;28;20035;-74
2021/09/03 13:30:02;;;;;;;7.00;5.72;;;;;;;;;;5094281;28;20024;-75
2021/09/03 13:32:28;;;;;;;8.93;5.25;;;;;;;;;;5083756;28;20047;-74
2021/09/03 13:34:54;;;;;;;10.07;5.97;;;;;;;;;;5094633;28;20062;-75
2021/09/03 13:37:20;;;;;;;7.30;6.18;;;;;;;;;;5093543;28;20037;-75
2021/09/03 13:39:47;;;;;;;7.25;5.50;;;;;;;;;;5094322;28;20048;-74
2021/09/03 13:42:14;;;;;;;9.90;5.90;;;;;;;;;;5094901;28;20383;-75
2021/09/03 13:44:41;;;;;;;8.15;5.97;;;;;;;;;;5094488;28;20039;-75
2021/09/03 13:47:08;;;;;;;8.63;5.55;;;;;;;;;;5088099;28;20094;-74
2021/09/03 13:49:34;;;;;;;7.90;5.55;;;;;;;;;;5082675;28;20020;-75
2021/09/03 13:52:00;;;;;;;11.15;6.18;;;;;;;;;;5083381;28;20098;-75
2021/09/03 13:54:26;;;;;;;7.80;5.32;;;;;;;;;;5074414;28;20028;-75
2021/09/03 13:56:53;;;;;;;8.05;6.60;;;;;;;;;;5075418;28;20040;-74
2021/09/03 13:59:20;;;;;;;8.13;5.18;;;;;;;;;;5074416;28;20025;-76
2021/09/03 14:01:46;;;;;;;10.20;7.07;;;;;;;;;;5094249;28;20032;-75
2021/09/03 14:04:12;;;;;;;14.40;12.63;;;;;;;;;;5094205;28;20045;-75
2021/09/03 14:06:38;;;;;;;8.88;5.90;;;;;;;;;;5095314;28;20047;-73
2021/09/03 14:09:06;;;;;;;9.45;5.85;;;;;;;;;;5088716;28;20025;-76
2021/09/03 14:11:32;;;;;;;8.70;5.88;;;;;;;;;;5074781;28;20033;-75
2021/09/03 14:13:59;;;;;;;8.95;5.97;;;;;;;;;;5074479;28;20039;-75
2021/09/03 14:16:25;;;;;;;8.02;5.45;;;;;;;;;;5089988;28;20024;-76
2021/09/03 14:18:51;;;;;;;7.90;5.78;;;;;;;;;;5087969;28;20035;-74
2021/09/03 14:21:17;;;;;;;8.90;5.60;;;;;;;;;;5076446;28;20475;-75
2021/09/03 14:23:43;;;;;;;6.35;4.85;;;;;;;;;;5094018;28;20078;-76
2021/09/03 14:26:10;;;;;;;7.40;5.25;;;;;;;;;;5092509;28;20024;-75
2021/09/03 14:28:37;;;;;;;6.72;4.78;;;;;;;;;;5082389;28;20028;-77
2021/09/03 14:31:03;;;;;;;6.47;5.32;;;;;;;;;;5073771;28;20055;-74
2021/09/03 14:33:29;;;;;;;8.15;5.18;;;;;;;;;;5073822;28;20032;-76
2021/09/03 14:35:55;;;;;;;6.63;4.55;;;;;;;;;;5073668;28;20056;-76
2021/09/03 14:38:21;;;;;;;7.38;5.13;;;;;;;;;;5073401;28;20055;-75
2021/09/03 14:40:47;;;;;;;5.97;4.63;;;;;;;;;;5073496;28;20043;-76
2021/09/03 14:43:13;;;;;;;7.82;5.18;;;;;;;;;;5073320;28;20024;-77